createdAt,value
2018-01-27T00:00:17.244Z,74.80
2018-01-27T00:02:44.866Z,74.80
2018-01-27T00:05:12.442Z,75.00
2018-01-27T00:07:40.024Z,75.00
2018-01-27T00:10:07.559Z,75.10
2018-01-27T00:12:35.131Z,75.20
2018-01-27T00:15:02.665Z,75.20
2018-01-27T00:17:30.252Z,75.30
2018-01-27T00:19:57.797Z,75.40
2018-01-27T00:22:25.377Z,75.30
2018-01-27T00:24:52.950Z,75.50
2018-01-27T00:27:20.526Z,75.70
2018-01-27T00:29:48.065Z,75.70
2018-01-27T00:32:15.648Z,76.00
2018-01-27T00:34:43.190Z,76.00
2018-01-27T00:37:10.768Z,76.00
2018-01-27T00:39:38.302Z,76.10
2018-01-27T00:42:05.881Z,76.20
2018-01-27T00:44:33.421Z,76.30
2018-01-27T00:47:01.006Z,76.30
2018-01-27T00:49:28.544Z,76.50
2018-01-27T00:51:56.124Z,76.60
2018-01-27T00:54:23.663Z,76.60
2018-01-27T00:56:51.243Z,76.60
2018-01-27T00:59:18.788Z,76.70
2018-01-27T01:01:46.416Z,76.80
2018-01-27T01:04:13.944Z,77.00
2018-01-27T01:06:42.283Z,77.10
2018-01-27T01:09:09.812Z,77.10
2018-01-27T01:11:37.391Z,77.20
2018-01-27T01:14:04.925Z,77.20
2018-01-27T01:16:32.507Z,77.40
2018-01-27T01:19:00.045Z,77.40
2018-01-27T01:21:27.635Z,77.40
2018-01-27T01:23:55.191Z,77.50
2018-01-27T01:28:53.498Z,77.70
2018-01-27T01:31:21.042Z,77.80
2018-01-27T01:33:48.624Z,77.90
2018-01-27T01:36:16.165Z,77.90
2018-01-27T01:38:43.743Z,77.90
2018-01-27T01:41:11.280Z,78.00
2018-01-27T01:43:44.548Z,78.00
2018-01-27T01:46:12.088Z,78.20
2018-01-27T01:48:39.670Z,78.20
2018-01-27T01:51:07.206Z,78.20
2018-01-27T01:53:35.562Z,78.50
2018-01-27T01:56:03.103Z,78.30
2018-01-27T01:58:30.688Z,79.30
2018-01-27T02:00:58.296Z,78.60
2018-01-27T02:03:25.853Z,78.70
2018-01-27T02:05:53.392Z,78.70
2018-01-27T02:08:20.968Z,78.80
2018-01-27T02:10:48.501Z,78.90
2018-01-27T02:13:16.850Z,79.00
2018-01-27T02:15:44.385Z,79.00
2018-01-27T02:18:11.975Z,79.10
2018-01-27T02:20:39.541Z,79.10
2018-01-27T02:23:07.120Z,79.10
2018-01-27T02:25:35.428Z,79.20
2018-01-27T02:28:03.003Z,79.20
2018-01-27T02:30:30.536Z,79.30
2018-01-27T02:32:58.112Z,79.40
2018-01-27T02:35:25.661Z,79.50
2018-01-27T02:37:53.243Z,79.40
2018-01-27T02:40:20.779Z,79.40
2018-01-27T02:42:48.380Z,79.50
2018-01-27T02:45:15.923Z,79.70
2018-01-27T02:47:43.464Z,79.70
2018-01-27T02:50:11.044Z,79.90
2018-01-27T02:52:38.579Z,79.70
2018-01-27T02:55:06.158Z,80.00
2018-01-27T02:57:33.695Z,80.00
2018-01-27T03:00:01.285Z,80.00
2018-01-27T03:02:28.823Z,80.00
2018-01-27T03:04:56.407Z,80.10
2018-01-27T03:07:23.948Z,80.10
2018-01-27T03:09:51.536Z,80.20
2018-01-27T03:12:19.079Z,80.30
2018-01-27T03:14:46.714Z,80.40
2018-01-27T03:17:14.983Z,80.60
2018-01-27T03:19:42.571Z,80.40
2018-01-27T03:22:10.103Z,80.50
2018-01-27T03:24:37.688Z,80.60
2018-01-27T03:27:05.232Z,80.60
2018-01-27T03:29:32.809Z,80.70
2018-01-27T03:32:00.468Z,80.80
2018-01-27T03:34:28.056Z,80.80
2018-01-27T03:36:55.600Z,81.00
2018-01-27T03:39:23.178Z,81.00
2018-01-27T03:41:50.715Z,81.00
2018-01-27T03:44:18.297Z,81.00
2018-01-27T03:46:45.840Z,81.00
2018-01-27T03:49:13.415Z,81.00
2018-01-27T03:51:40.955Z,81.10
2018-01-27T03:54:08.499Z,81.20
2018-01-27T03:56:36.075Z,81.20
2018-01-27T03:59:03.656Z,81.20
2018-01-27T04:01:31.196Z,81.30
2018-01-27T04:03:58.776Z,81.30
2018-01-27T04:06:26.321Z,81.40
2018-01-27T04:08:53.909Z,81.40
2018-01-27T04:11:22.222Z,82.00
2018-01-27T04:13:49.804Z,81.50
2018-01-27T04:16:17.348Z,81.50
2018-01-27T04:18:44.923Z,81.70
2018-01-27T04:21:12.461Z,81.60
2018-01-27T04:23:40.051Z,81.70
2018-01-27T04:26:07.593Z,81.80
2018-01-27T04:28:35.178Z,81.80
2018-01-27T04:31:02.719Z,81.80
2018-01-27T04:33:30.295Z,81.80
2018-01-27T04:35:57.834Z,81.80
2018-01-27T04:38:25.418Z,82.00
2018-01-27T04:40:52.957Z,82.00
2018-01-27T04:43:20.533Z,82.50
2018-01-27T04:45:48.106Z,82.10
2018-01-27T04:48:15.719Z,82.10
2018-01-27T04:50:43.254Z,82.10
2018-01-27T04:53:11.616Z,82.30
2018-01-27T04:55:39.149Z,82.30
2018-01-27T04:58:06.696Z,82.30
2018-01-27T05:00:34.282Z,82.30
2018-01-27T05:03:01.828Z,82.30
2018-01-27T05:05:29.407Z,82.40
2018-01-27T05:07:56.952Z,82.40
2018-01-27T05:10:24.576Z,82.50
2018-01-27T05:12:52.863Z,82.60
2018-01-27T05:15:20.438Z,82.50
2018-01-27T05:17:47.979Z,82.50
2018-01-27T05:20:15.559Z,82.60
2018-01-27T05:22:43.106Z,82.60
2018-01-27T05:25:10.682Z,82.60
2018-01-27T05:27:38.231Z,82.60
2018-01-27T05:30:05.811Z,82.70
2018-01-27T05:32:33.410Z,82.80
2018-01-27T05:35:01.762Z,82.80
2018-01-27T05:37:29.307Z,82.80
2018-01-27T05:39:56.903Z,82.90
2018-01-27T05:42:25.220Z,82.90
2018-01-27T05:44:52.799Z,82.90
2018-01-27T05:47:20.355Z,82.90
2018-01-27T05:49:48.013Z,83.00
2018-01-27T05:52:15.542Z,83.00
2018-01-27T05:54:43.115Z,83.00
2018-01-27T05:57:10.651Z,83.10
2018-01-27T05:59:38.995Z,83.20
2018-01-27T06:02:06.529Z,83.20
2018-01-27T06:04:34.121Z,83.20
2018-01-27T06:07:01.660Z,83.30
2018-01-27T06:09:29.237Z,83.40
2018-01-27T06:11:56.778Z,83.50
2018-01-27T06:14:24.374Z,83.40
2018-01-27T06:16:52.691Z,83.50
2018-01-27T06:19:20.276Z,83.40
2018-01-27T06:21:47.820Z,83.50
2018-01-27T06:24:15.398Z,83.40
2018-01-27T06:26:42.936Z,83.50
2018-01-27T06:29:10.517Z,83.60
2018-01-27T06:31:38.047Z,83.60
2018-01-27T06:34:05.632Z,83.70
2018-01-27T06:36:33.177Z,83.80
2018-01-27T06:39:00.795Z,83.90
2018-01-27T06:41:29.096Z,84.70
2018-01-27T06:43:56.721Z,83.90
2018-01-27T06:46:24.256Z,84.10
2018-01-27T06:48:51.846Z,84.10
2018-01-27T06:51:19.390Z,84.10
2018-01-27T06:53:46.984Z,84.20
2018-01-27T06:56:15.282Z,84.20
2018-01-27T06:58:42.864Z,84.20
2018-01-27T07:01:10.408Z,84.40
2018-01-27T07:03:38.007Z,84.40
2018-01-27T07:06:05.552Z,84.50
2018-01-27T07:08:33.107Z,84.50
2018-01-27T07:11:00.689Z,84.50
2018-01-27T07:13:28.227Z,84.50
2018-01-27T07:15:55.815Z,84.50
2018-01-27T07:18:23.364Z,84.50
2018-01-27T07:20:50.948Z,84.60
2018-01-27T07:23:19.256Z,84.70
2018-01-27T07:25:46.838Z,84.70
2018-01-27T07:28:14.379Z,84.70
2018-01-27T07:30:41.969Z,84.80
2018-01-27T07:33:09.509Z,84.80
2018-01-27T07:35:37.097Z,84.80
2018-01-27T07:38:04.643Z,84.80
2018-01-27T07:40:32.224Z,84.80
2018-01-27T07:43:00.603Z,84.80
2018-01-27T07:45:28.200Z,84.80
2018-01-27T07:47:55.742Z,85.70
2018-01-27T07:50:24.104Z,84.90
2018-01-27T07:52:51.648Z,84.90
2018-01-27T07:55:19.233Z,85.00
2018-01-27T07:57:47.545Z,85.00
2018-01-27T08:00:15.133Z,84.90
2018-01-27T08:02:42.675Z,84.90
2018-01-27T08:05:10.364Z,85.10
2018-01-27T08:07:37.917Z,85.00
2018-01-27T08:10:05.509Z,85.00
2018-01-27T08:12:33.048Z,85.00
2018-01-27T08:15:00.644Z,85.00
2018-01-27T08:17:28.956Z,85.10
2018-01-27T08:19:56.542Z,85.10
2018-01-27T08:22:24.083Z,85.10
2018-01-27T08:24:51.704Z,85.20
2018-01-27T08:27:20.008Z,85.20
2018-01-27T08:29:47.598Z,85.20
2018-01-27T08:32:15.143Z,85.10
2018-01-27T08:34:42.735Z,85.10
2018-01-27T08:37:10.277Z,85.20
2018-01-27T08:39:37.867Z,85.20
2018-01-27T08:42:05.411Z,85.20
2018-01-27T08:44:32.994Z,85.30
2018-01-27T08:47:01.308Z,85.30
2018-01-27T08:49:28.888Z,85.30
2018-01-27T08:51:56.429Z,85.50
2018-01-27T08:54:24.019Z,85.50
2018-01-27T08:56:51.681Z,85.40
2018-01-27T08:59:19.263Z,85.40
2018-01-27T09:01:46.884Z,85.50
2018-01-27T09:04:14.468Z,85.50
2018-01-27T09:06:42.013Z,85.60
2018-01-27T09:09:09.599Z,85.60
2018-01-27T09:11:37.962Z,85.70
2018-01-27T09:14:05.695Z,85.60
2018-01-27T09:16:33.371Z,85.60
2018-01-27T09:19:00.957Z,85.70
2018-01-27T09:21:28.511Z,85.70
2018-01-27T09:23:56.094Z,85.80
2018-01-27T09:26:23.647Z,85.80
2018-01-27T09:28:51.236Z,85.80
2018-01-27T09:31:18.944Z,85.90
2018-01-27T09:33:46.551Z,85.80
2018-01-27T09:36:14.856Z,85.90
2018-01-27T09:38:42.456Z,85.90
2018-01-27T09:41:10.001Z,85.90
2018-01-27T09:43:37.627Z,86.00
2018-01-27T09:46:05.178Z,85.90
2018-01-27T09:48:33.540Z,85.80
2018-01-27T09:51:01.850Z,85.90
2018-01-27T09:53:29.444Z,85.80
2018-01-27T09:55:57.003Z,85.80
2018-01-27T09:58:24.958Z,85.80
2018-01-27T10:00:52.515Z,85.80
2018-01-27T10:03:20.100Z,85.90
2018-01-27T10:05:47.641Z,85.70
2018-01-27T10:08:15.228Z,85.60
2018-01-27T10:10:42.778Z,85.70
2018-01-27T10:13:10.357Z,85.50
2018-01-27T10:15:37.900Z,85.70
2018-01-27T10:18:05.496Z,85.70
2018-01-27T10:20:33.811Z,85.90
2018-01-27T10:23:01.390Z,85.90
2018-01-27T10:25:28.935Z,85.90
2018-01-27T10:27:56.525Z,85.90
2018-01-27T10:30:24.072Z,86.00
2018-01-27T10:32:51.699Z,86.00
2018-01-27T10:35:19.299Z,86.00
2018-01-27T10:37:46.911Z,86.00
2018-01-27T10:40:14.482Z,86.10
2018-01-27T10:42:42.084Z,86.20
2018-01-27T10:45:09.639Z,86.00
2018-01-27T10:47:37.262Z,86.00
2018-01-27T10:50:04.812Z,85.90
2018-01-27T10:52:32.366Z,85.90
2018-01-27T10:54:59.970Z,86.00
2018-01-27T10:57:27.526Z,86.00
2018-01-27T10:59:55.115Z,86.00
2018-01-27T11:02:22.678Z,86.00
2018-01-27T11:04:51.037Z,86.10
2018-01-27T11:07:18.579Z,86.80
2018-01-27T11:09:46.160Z,86.00
2018-01-27T11:12:13.705Z,86.20
2018-01-27T11:14:41.338Z,86.20
2018-01-27T11:17:08.885Z,86.10
2018-01-27T11:19:37.248Z,86.30
2018-01-27T11:22:05.565Z,86.30
2018-01-27T11:24:33.166Z,86.30
2018-01-27T11:27:00.715Z,86.20
2018-01-27T11:29:28.335Z,86.30
2018-01-27T11:31:55.885Z,86.40
2018-01-27T11:34:23.483Z,86.20
2018-01-27T11:36:51.041Z,86.20
2018-01-27T11:39:18.633Z,86.20
2018-01-27T11:41:46.197Z,86.30
2018-01-27T11:44:13.788Z,86.10
2018-01-27T11:46:42.086Z,86.10
2018-01-27T11:49:09.679Z,86.10
2018-01-27T11:51:37.233Z,86.10
2018-01-27T11:54:04.815Z,86.10
2018-01-27T11:56:32.360Z,86.10
2018-01-27T11:58:59.957Z,86.90
2018-01-27T12:01:28.265Z,86.10
2018-01-27T12:03:55.867Z,86.10
2018-01-27T12:06:23.485Z,86.00
2018-01-27T12:08:51.102Z,86.10
2018-01-27T12:11:19.407Z,86.20
2018-01-27T12:13:46.991Z,86.10
2018-01-27T12:16:14.537Z,86.10
2018-01-27T12:18:42.124Z,86.10
2018-01-27T12:21:09.771Z,86.10
2018-01-27T12:23:37.359Z,86.10
2018-01-27T12:26:04.908Z,86.00
2018-01-27T12:28:32.506Z,86.00
2018-01-27T12:31:00.813Z,86.10
2018-01-27T12:33:28.409Z,86.10
2018-01-27T12:35:55.951Z,86.20
2018-01-27T12:38:23.598Z,86.10
2018-01-27T12:40:51.143Z,86.10
2018-01-27T12:43:19.487Z,86.10
2018-01-27T12:45:47.116Z,86.20
2018-01-27T12:48:14.715Z,86.10
2018-01-27T12:50:42.259Z,86.20
2018-01-27T12:53:09.850Z,86.10
2018-01-27T12:55:38.194Z,86.20
2018-01-27T12:58:05.787Z,86.20
2018-01-27T13:00:34.100Z,86.90
2018-01-27T13:03:01.727Z,86.10
2018-01-27T13:05:30.035Z,86.20
2018-01-27T13:07:57.654Z,86.20
2018-01-27T13:10:25.962Z,86.00
2018-01-27T13:12:53.646Z,86.00
2018-01-27T13:15:21.195Z,85.90
2018-01-27T13:17:48.784Z,86.10
2018-01-27T13:20:16.428Z,86.10
2018-01-27T13:22:44.045Z,86.00
2018-01-27T13:25:12.368Z,86.00
2018-01-27T13:27:39.912Z,86.00
2018-01-27T13:30:07.543Z,86.10
2018-01-27T13:32:35.843Z,86.00
2018-01-27T13:35:03.430Z,86.00
2018-01-27T13:37:30.968Z,85.90
2018-01-27T13:39:58.597Z,86.00
2018-01-27T13:42:26.981Z,86.10
2018-01-27T13:44:55.459Z,86.00
2018-01-27T13:47:23.891Z,85.90
2018-01-27T13:49:51.867Z,85.90
2018-01-27T13:52:19.626Z,85.90
2018-01-27T13:54:47.236Z,85.90
2018-01-27T13:57:15.562Z,86.00
2018-01-27T13:59:43.157Z,86.00
2018-01-27T14:02:10.710Z,85.80
2018-01-27T14:04:38.358Z,86.00
2018-01-27T14:07:05.898Z,86.00
2018-01-27T14:09:33.588Z,86.10
2018-01-27T14:12:01.180Z,86.00
2018-01-27T14:14:29.529Z,86.20
2018-01-27T14:16:57.080Z,86.10
2018-01-27T14:19:24.670Z,86.30
2018-01-27T14:21:52.979Z,86.10
2018-01-27T14:24:20.577Z,86.00
2018-01-27T14:26:48.172Z,86.00
2018-01-27T14:29:15.807Z,86.10
2018-01-27T14:31:43.356Z,86.10
2018-01-27T14:34:10.980Z,86.10
2018-01-27T14:36:39.562Z,86.20
2018-01-27T14:39:07.155Z,86.10
2018-01-27T14:41:34.695Z,86.10
2018-01-27T14:44:02.297Z,86.10
2018-01-27T14:46:29.884Z,86.00
2018-01-27T14:48:58.282Z,86.10
2018-01-27T14:51:26.575Z,86.20
2018-01-27T14:53:54.168Z,86.10
2018-01-27T14:56:21.712Z,86.10
2018-01-27T14:58:49.292Z,86.10
2018-01-27T15:01:17.599Z,86.20
2018-01-27T15:03:45.954Z,86.20
2018-01-27T15:06:13.503Z,86.20
2018-01-27T15:08:41.124Z,86.20
2018-01-27T15:11:09.424Z,86.20
2018-01-27T15:13:37.052Z,86.10
2018-01-27T15:16:04.614Z,86.10
2018-01-27T15:18:32.212Z,86.10
2018-01-27T15:20:59.797Z,86.10
2018-01-27T15:23:27.372Z,86.30
2018-01-27T15:25:54.905Z,86.20
2018-01-27T15:28:22.483Z,86.20
2018-01-27T15:30:50.025Z,86.40
2018-01-27T15:33:17.649Z,86.40
2018-01-27T15:35:45.207Z,86.30
2018-01-27T15:38:12.797Z,86.30
2018-01-27T15:40:40.389Z,86.40
2018-01-27T15:43:07.923Z,86.30
2018-01-27T15:45:35.558Z,86.40
2018-01-27T15:48:03.157Z,86.40
2018-01-27T15:50:30.779Z,86.30
2018-01-27T15:52:58.315Z,86.40
2018-01-27T15:55:25.901Z,86.40
2018-01-27T15:57:53.488Z,86.40
2018-01-27T16:00:21.074Z,86.40
2018-01-27T16:02:49.483Z,86.60
2018-01-27T16:05:17.062Z,86.40
2018-01-27T16:07:44.827Z,86.50
2018-01-27T16:10:12.419Z,86.50
2018-01-27T16:12:39.958Z,86.50
2018-01-27T16:15:07.556Z,86.50
2018-01-27T16:17:35.092Z,86.50
2018-01-27T16:20:02.672Z,86.50
2018-01-27T16:22:30.203Z,86.50
2018-01-27T16:24:57.832Z,86.40
2018-01-27T16:27:25.371Z,86.60
2018-01-27T16:29:53.719Z,86.50
2018-01-27T16:32:21.261Z,86.50
2018-01-27T16:34:48.841Z,86.60
2018-01-27T16:37:16.429Z,86.60
2018-01-27T16:39:44.774Z,86.70
2018-01-27T16:42:12.354Z,86.60
2018-01-27T16:44:40.001Z,86.70
2018-01-27T16:47:07.548Z,86.60
2018-01-27T16:49:35.216Z,86.70
2018-01-27T16:52:02.792Z,86.70
2018-01-27T16:54:30.377Z,86.70
2018-01-27T16:56:57.977Z,87.30
2018-01-27T16:59:25.604Z,86.70
2018-01-27T17:01:53.191Z,86.70
2018-01-27T17:04:20.775Z,86.70
2018-01-27T17:06:48.370Z,86.70
2018-01-27T17:09:16.713Z,86.80
2018-01-27T17:11:44.302Z,86.70
2018-01-27T17:14:12.704Z,86.80
2018-01-27T17:16:40.267Z,86.70
2018-01-27T17:19:07.911Z,86.80
2018-01-27T17:21:36.274Z,86.90
2018-01-27T17:24:03.869Z,86.80
2018-01-27T17:26:31.416Z,86.90
2018-01-27T17:28:59.000Z,86.90
2018-01-27T17:31:26.571Z,87.00
2018-01-27T17:33:54.204Z,86.90
2018-01-27T17:36:21.799Z,87.00
2018-01-27T17:38:49.440Z,87.00
2018-01-27T17:41:16.980Z,87.00
2018-01-27T17:43:45.328Z,87.00
2018-01-27T17:46:12.926Z,86.90
2018-01-27T17:48:40.475Z,86.90
2018-01-27T17:51:08.869Z,86.90
2018-01-27T17:53:36.497Z,86.90
2018-01-27T17:56:04.085Z,86.90
2018-01-27T17:58:31.681Z,86.90
2018-01-27T18:00:59.274Z,86.90
2018-01-27T18:03:26.899Z,87.00
2018-01-27T18:05:54.538Z,87.00
2018-01-27T18:08:22.140Z,87.00
2018-01-27T18:10:49.728Z,87.00
2018-01-27T18:13:18.088Z,87.10
2018-01-27T18:15:45.741Z,86.90
2018-01-27T18:18:13.280Z,87.00
2018-01-27T18:20:40.905Z,86.90
2018-01-27T18:23:09.210Z,87.00
2018-01-27T18:25:36.878Z,87.00
2018-01-27T18:28:04.467Z,87.00
2018-01-27T18:30:32.050Z,87.00
2018-01-27T18:33:00.360Z,87.10
2018-01-27T18:35:27.948Z,87.00
2018-01-27T18:37:55.495Z,87.00
2018-01-27T18:40:23.121Z,87.10
2018-01-27T18:42:51.755Z,87.00
2018-01-27T18:45:19.343Z,87.10
2018-01-27T18:47:46.879Z,87.00
2018-01-27T18:50:14.519Z,87.20
2018-01-27T18:52:42.056Z,87.20
2018-01-27T18:55:09.682Z,87.20
2018-01-27T18:57:38.740Z,87.10
2018-01-27T19:00:06.377Z,87.10
2018-01-27T19:02:33.987Z,87.00
2018-01-27T19:05:01.629Z,87.10
2018-01-27T19:07:29.198Z,87.10
2018-01-27T19:09:56.802Z,87.10
2018-01-27T19:12:25.151Z,87.20
2018-01-27T19:14:52.794Z,87.10
2018-01-27T19:17:20.449Z,87.10
2018-01-27T19:19:48.253Z,87.20
2018-01-27T19:22:15.903Z,87.20
2018-01-27T19:24:43.679Z,87.40
2018-01-27T19:27:12.115Z,87.20
2018-01-27T19:29:39.748Z,87.90
2018-01-27T19:32:08.202Z,87.20
2018-01-27T19:34:36.767Z,87.20
2018-01-27T19:37:04.363Z,87.20
2018-01-27T19:39:32.998Z,87.30
2018-01-27T19:42:00.763Z,87.30
2018-01-27T19:44:28.409Z,87.30
2018-01-27T19:46:55.955Z,87.30
2018-01-27T19:49:23.638Z,87.30
2018-01-27T19:51:51.240Z,87.30
2018-01-27T19:54:19.789Z,87.40
2018-01-27T19:56:47.450Z,87.20
2018-01-27T19:59:15.121Z,87.30
2018-01-27T20:01:42.745Z,87.20
2018-01-27T20:04:10.644Z,87.30
2018-01-27T20:06:38.270Z,87.30
2018-01-27T20:09:05.914Z,87.30
2018-01-27T20:11:34.448Z,87.40
2018-01-27T20:14:02.216Z,87.40
2018-01-27T20:16:29.877Z,87.40
2018-01-27T20:18:58.358Z,87.40
2018-01-27T20:21:25.920Z,87.40
2018-01-27T20:23:53.570Z,87.40
2018-01-27T20:26:21.265Z,87.50
2018-01-27T20:28:48.884Z,87.50
2018-01-27T20:31:16.570Z,87.40
2018-01-27T20:33:44.231Z,87.40
2018-01-27T20:36:11.890Z,87.50
2018-01-27T20:38:39.549Z,87.50
2018-01-27T20:41:07.139Z,87.50
2018-01-27T20:43:36.411Z,87.60
2018-01-27T20:46:04.009Z,87.60
2018-01-27T20:48:31.642Z,87.60
2018-01-27T20:50:59.285Z,87.60
2018-01-27T20:53:26.966Z,87.60
2018-01-27T20:55:54.622Z,87.70
2018-01-27T20:58:22.288Z,87.70
2018-01-27T21:00:49.982Z,87.80
2018-01-27T21:03:18.393Z,87.80
2018-01-27T21:05:45.931Z,87.80
2018-01-27T21:08:14.343Z,88.10
2018-01-27T21:10:41.891Z,88.00
2018-01-27T21:13:09.581Z,88.10
2018-01-27T21:15:37.171Z,87.90
2018-01-27T21:18:04.756Z,88.00
2018-01-27T21:20:33.116Z,88.20
2018-01-27T21:23:00.751Z,88.20
2018-01-27T21:25:28.417Z,88.10
2018-01-27T21:27:56.016Z,88.10
2018-01-27T21:30:24.370Z,88.50
2018-01-27T21:32:51.997Z,88.50
2018-01-27T21:35:19.585Z,88.20
2018-01-27T21:37:47.338Z,88.50
2018-01-27T21:40:14.923Z,88.60
2018-01-27T21:42:42.510Z,88.60
2018-01-27T21:45:10.871Z,88.80
2018-01-27T21:47:39.238Z,88.50
2018-01-27T21:50:07.603Z,88.70
2018-01-27T21:52:35.254Z,88.70
2018-01-27T21:55:02.859Z,88.70
2018-01-27T21:57:31.163Z,88.90
2018-01-27T21:59:58.801Z,88.80
2018-01-27T22:02:27.164Z,88.80
2018-01-27T22:04:54.802Z,88.80
2018-01-27T22:07:22.381Z,89.10
2018-01-27T22:09:49.962Z,88.90
2018-01-27T22:12:18.315Z,88.90
2018-01-27T22:14:45.952Z,88.90
2018-01-27T22:17:13.537Z,88.90
2018-01-27T22:19:41.178Z,88.90
2018-01-27T22:22:08.767Z,88.90
2018-01-27T22:24:36.409Z,88.90
2018-01-27T22:27:04.037Z,88.90
2018-01-27T22:29:31.627Z,89.00
2018-01-27T22:31:59.209Z,88.90
2018-01-27T22:34:26.838Z,89.00
2018-01-27T22:36:54.425Z,88.90
2018-01-27T22:39:22.063Z,89.00
2018-01-27T22:41:49.654Z,89.00
2018-01-27T22:44:17.288Z,89.10
2018-01-27T22:46:44.827Z,89.10
2018-01-27T22:49:12.466Z,89.10
2018-01-27T22:51:40.812Z,89.10
2018-01-27T22:54:08.396Z,89.00
2018-01-27T22:56:36.703Z,89.10
2018-01-27T22:59:04.334Z,89.10
2018-01-27T23:01:32.694Z,89.20
2018-01-27T23:04:00.330Z,89.20
2018-01-27T23:06:27.924Z,89.30
2018-01-27T23:08:55.545Z,89.20
2018-01-27T23:11:23.087Z,89.20
2018-01-27T23:13:50.714Z,89.20
2018-01-27T23:16:19.020Z,89.30
2018-01-27T23:18:46.654Z,89.30
2018-01-27T23:21:15.016Z,89.30
2018-01-27T23:23:42.603Z,89.30
2018-01-27T23:26:10.909Z,89.30
2018-01-27T23:28:38.543Z,89.30
2018-01-27T23:31:07.062Z,89.30
2018-01-27T23:33:34.709Z,89.30
2018-01-27T23:36:02.315Z,89.40
2018-01-27T23:38:29.936Z,89.50
2018-01-27T23:40:57.481Z,89.30
2018-01-27T23:43:25.025Z,89.50
2018-01-27T23:45:52.663Z,89.40
2018-01-27T23:48:20.248Z,89.40
2018-01-27T23:50:48.557Z,89.60
2018-01-27T23:53:16.181Z,89.50
2018-01-27T23:55:44.531Z,89.70
2018-01-27T23:58:12.119Z,89.50
